Terminal Aerodrome Forecast
Issued by NWS Greer, SC

Home | Current Version | Previous Version | Text Only | Print | Product List | Glossary On
Versions: 1 2 3 4 5 6 7 8 9 10 11 12 13 14 15 16 17 18 19 20 21 22 23 24 25 26
000
FTUS42 KGSP 231502 AAB
TAFCLT
TAF AMD
KCLT 231502Z 2315/2412 08004KT 4SM -SHRA BR SCT008 BKN015 OVC040
     FM231800 03005KT 6SM -SHRA BR OVC010
      TEMPO 2318/2322 3SM TSRA BR OVC008CB
     FM240000 04005KT 5SM BR VCSH OVC008
     FM240700 05003KT P6SM OVC003=

USA.gov is the U.S. government's official web portal to all federal, state and local government web resources and services.